createdAt,value
2017-09-26T00:02:14.569Z,13.68
2017-09-26T00:04:42.363Z,14.02
2017-09-26T00:07:10.674Z,14.93
2017-09-26T00:09:38.565Z,17.05
2017-09-26T00:12:06.204Z,15.50
2017-09-26T00:14:33.791Z,16.67
2017-09-26T00:17:01.328Z,17.45
2017-09-26T00:19:28.921Z,16.75
2017-09-26T00:21:56.478Z,17.83
2017-09-26T00:24:24.071Z,17.08
2017-09-26T00:26:52.387Z,18.45
2017-09-26T00:29:21.450Z,18.62
2017-09-26T00:31:49.771Z,18.75
2017-09-26T00:34:17.758Z,16.48
2017-09-26T00:36:45.321Z,17.05
2017-09-26T00:39:12.873Z,18.27
2017-09-26T00:41:40.717Z,18.87
2017-09-26T00:44:08.262Z,18.35
2017-09-26T00:46:35.814Z,16.45
2017-09-26T00:49:03.741Z,18.10
2017-09-26T00:51:31.292Z,14.98
2017-09-26T00:53:58.846Z,18.17
2017-09-26T00:56:26.432Z,16.37
2017-09-26T00:58:53.977Z,18.77
2017-09-26T01:01:22.486Z,16.58
2017-09-26T01:03:51.414Z,18.92
2017-09-26T01:06:39.888Z,14.98
2017-09-26T01:09:07.430Z,20.33
2017-09-26T01:11:35.083Z,15.77
2017-09-26T01:14:02.984Z,17.23
2017-09-26T01:16:30.559Z,17.95
2017-09-26T01:18:58.105Z,22.17
2017-09-26T01:21:25.851Z,18.58
2017-09-26T01:23:53.392Z,16.42
2017-09-26T01:26:20.985Z,17.40
2017-09-26T01:28:48.842Z,20.85
2017-09-26T01:31:16.394Z,18.62
2017-09-26T01:33:43.939Z,17.67
2017-09-26T01:36:15.421Z,17.12
2017-09-26T01:38:42.960Z,21.10
2017-09-26T01:41:20.279Z,20.42
2017-09-26T01:43:47.824Z,22.10
2017-09-26T01:46:15.802Z,22.55
2017-09-26T01:48:43.347Z,21.17
2017-09-26T01:51:10.893Z,19.77
2017-09-26T01:53:40.052Z,21.35
2017-09-26T01:56:23.405Z,18.87
2017-09-26T01:58:51.753Z,20.55
2017-09-26T02:01:20.303Z,17.87
2017-09-26T02:03:47.841Z,19.73
2017-09-26T02:06:15.397Z,19.80
2017-09-26T02:08:48.216Z,20.20
2017-09-26T02:11:16.028Z,19.10
2017-09-26T02:13:44.342Z,20.88
2017-09-26T02:16:11.915Z,21.73
2017-09-26T02:18:39.458Z,16.83
2017-09-26T02:21:07.448Z,19.83
2017-09-26T02:23:34.992Z,19.83
2017-09-26T02:26:02.539Z,18.40
2017-09-26T02:28:30.263Z,15.93
2017-09-26T02:30:57.836Z,15.82
2017-09-26T02:33:26.335Z,16.23
2017-09-26T02:35:53.876Z,13.68
2017-09-26T02:38:22.191Z,19.20
2017-09-26T02:40:49.773Z,22.73
2017-09-26T02:43:17.317Z,22.70
2017-09-26T02:45:44.961Z,16.15
2017-09-26T02:48:12.502Z,13.15
2017-09-26T02:50:40.846Z,10.88
2017-09-26T02:53:08.380Z,11.38
2017-09-26T02:55:35.953Z,10.55
2017-09-26T02:58:03.496Z,11.30
2017-09-26T03:00:31.245Z,14.50
2017-09-26T03:02:58.788Z,13.60
2017-09-26T03:05:26.333Z,13.60
2017-09-26T03:07:55.485Z,13.30
2017-09-26T03:10:23.293Z,17.83
2017-09-26T03:12:51.610Z,21.80
2017-09-26T03:15:19.372Z,16.48
2017-09-26T03:17:46.949Z,14.55
2017-09-26T03:20:14.486Z,17.25
2017-09-26T03:22:42.070Z,19.25
2017-09-26T03:25:09.613Z,22.23
2017-09-26T03:27:37.510Z,21.80
2017-09-26T03:30:05.061Z,27.45
2017-09-26T03:32:32.611Z,27.80
2017-09-26T03:35:00.383Z,27.33
2017-09-26T03:37:27.969Z,30.15
2017-09-26T03:39:55.504Z,23.02
2017-09-26T03:42:23.077Z,26.42
2017-09-26T03:44:50.620Z,26.70
2017-09-26T03:47:18.202Z,23.25
2017-09-26T03:49:45.744Z,18.45
2017-09-26T03:52:13.513Z,18.02
2017-09-26T03:54:41.052Z,15.52
2017-09-26T03:57:08.638Z,16.37
2017-09-26T03:59:36.180Z,24.33
2017-09-26T04:02:08.674Z,23.33
2017-09-26T04:04:36.215Z,24.60
2017-09-26T04:07:04.401Z,24.98
2017-09-26T04:09:31.949Z,25.83
2017-09-26T04:12:00.193Z,27.42
2017-09-26T04:14:28.708Z,26.15
2017-09-26T04:16:56.248Z,28.40
2017-09-26T04:19:23.884Z,27.77
2017-09-26T04:21:52.184Z,24.65
2017-09-26T04:24:19.762Z,25.73
2017-09-26T04:26:47.298Z,26.35
2017-09-26T04:29:14.876Z,27.37
2017-09-26T04:31:42.413Z,27.95
2017-09-26T04:34:10.757Z,28.35
2017-09-26T04:36:38.304Z,30.85
2017-09-26T04:39:05.937Z,23.70
2017-09-26T04:41:33.820Z,26.30
2017-09-26T04:44:01.360Z,26.27
2017-09-26T04:46:28.904Z,26.85
2017-09-26T04:48:56.565Z,23.12
2017-09-26T04:51:24.871Z,27.00
2017-09-26T04:53:56.053Z,28.05
2017-09-26T04:56:23.598Z,46.53
2017-09-26T04:58:51.197Z,132.63
2017-09-26T05:01:19.505Z,36.85
2017-09-26T05:03:47.100Z,42.53
2017-09-26T05:06:14.652Z,36.80
2017-09-26T05:08:42.195Z,32.03
2017-09-26T05:11:10.125Z,26.73
2017-09-26T05:13:38.665Z,26.77
2017-09-26T05:16:06.218Z,23.95
2017-09-26T05:18:33.930Z,28.55
2017-09-26T05:21:02.247Z,23.87
2017-09-26T05:23:30.241Z,25.83
2017-09-26T05:25:57.790Z,29.45
2017-09-26T05:28:26.688Z,30.10
2017-09-26T05:30:54.482Z,31.08
2017-09-26T05:33:22.021Z,29.58
2017-09-26T05:35:49.608Z,30.27
2017-09-26T05:38:17.965Z,32.40
2017-09-26T05:40:45.515Z,22.75
2017-09-26T05:43:13.451Z,23.33
2017-09-26T05:45:40.987Z,24.10
2017-09-26T05:48:09.305Z,22.60
2017-09-26T05:50:38.413Z,23.25
2017-09-26T05:53:09.600Z,23.12
2017-09-26T05:55:37.944Z,23.87
2017-09-26T05:58:05.485Z,21.65
2017-09-26T06:00:33.509Z,20.98
2017-09-26T06:03:01.817Z,20.95
2017-09-26T06:05:29.366Z,21.12
2017-09-26T06:07:57.138Z,21.50
2017-09-26T06:10:24.992Z,24.37
2017-09-26T06:12:52.528Z,25.48
2017-09-26T06:15:20.144Z,27.50
2017-09-26T06:17:47.689Z,25.95
2017-09-26T06:20:15.228Z,26.30
2017-09-26T06:22:43.724Z,25.37
2017-09-26T06:25:11.812Z,27.42
2017-09-26T06:27:39.360Z,28.20
2017-09-26T06:30:06.969Z,30.37
2017-09-26T06:32:34.563Z,26.52
2017-09-26T06:35:02.105Z,24.67
2017-09-26T06:37:30.757Z,27.42
2017-09-26T06:39:58.329Z,24.65
2017-09-26T06:42:25.877Z,25.98
2017-09-26T06:44:53.630Z,24.27
2017-09-26T06:47:21.164Z,30.65
2017-09-26T06:49:48.756Z,25.48
2017-09-26T06:52:16.303Z,25.50
2017-09-26T06:54:43.908Z,26.67
2017-09-26T06:57:11.482Z,25.58
2017-09-26T06:59:39.885Z,30.33
2017-09-26T07:02:07.438Z,21.27
2017-09-26T07:04:35.021Z,26.17
2017-09-26T07:07:02.585Z,24.65
2017-09-26T07:09:30.165Z,23.73
2017-09-26T07:11:57.705Z,24.52
2017-09-26T07:14:25.710Z,24.55
2017-09-26T07:16:53.253Z,26.95
2017-09-26T07:19:20.804Z,22.10
2017-09-26T07:21:48.450Z,25.05
2017-09-26T07:24:16.076Z,24.27
2017-09-26T07:26:45.949Z,23.73
2017-09-26T07:29:13.720Z,25.85
2017-09-26T07:31:41.257Z,24.37
2017-09-26T07:34:11.597Z,24.85
2017-09-26T07:36:39.146Z,24.10
2017-09-26T07:39:07.461Z,24.08
2017-09-26T07:41:35.053Z,25.85
2017-09-26T07:44:02.623Z,26.80
2017-09-26T07:46:30.269Z,24.40
2017-09-26T07:48:58.581Z,24.83
2017-09-26T07:51:26.160Z,23.00
2017-09-26T07:53:53.743Z,23.23
2017-09-26T07:56:21.505Z,23.55
2017-09-26T07:58:49.558Z,24.35
2017-09-26T08:01:17.375Z,23.75
2017-09-26T08:03:45.233Z,22.10
2017-09-26T08:06:15.658Z,24.63
2017-09-26T08:08:43.629Z,24.85
2017-09-26T08:11:12.382Z,23.77
2017-09-26T08:13:39.960Z,23.27
2017-09-26T08:16:08.832Z,21.65
2017-09-26T08:18:36.368Z,22.50
2017-09-26T08:21:04.683Z,21.50
2017-09-26T08:23:32.458Z,21.33
2017-09-26T08:26:00.053Z,20.50
2017-09-26T08:28:27.618Z,21.25
2017-09-26T08:30:55.157Z,22.00
2017-09-26T08:33:23.534Z,20.98
2017-09-26T08:35:51.081Z,20.52
2017-09-26T08:38:19.453Z,19.45
2017-09-26T08:40:47.300Z,20.30
2017-09-26T08:43:14.897Z,18.10
2017-09-26T08:45:43.248Z,20.60
2017-09-26T08:48:11.110Z,18.75
2017-09-26T08:50:38.665Z,19.75
2017-09-26T08:53:06.213Z,19.42
2017-09-26T08:55:35.007Z,16.70
2017-09-26T08:58:03.027Z,18.42
2017-09-26T09:00:30.942Z,17.75
2017-09-26T09:02:58.488Z,18.00
2017-09-26T09:05:26.048Z,17.10
2017-09-26T09:07:53.629Z,18.45
2017-09-26T09:10:21.492Z,15.70
2017-09-26T09:12:49.517Z,15.55
2017-09-26T09:15:17.144Z,17.40
2017-09-26T09:17:44.874Z,14.45
2017-09-26T09:20:12.448Z,14.15
2017-09-26T09:22:39.991Z,16.12
2017-09-26T09:25:07.573Z,16.50
2017-09-26T09:27:35.157Z,15.55
2017-09-26T09:30:03.940Z,17.73
2017-09-26T09:32:31.848Z,15.35
2017-09-26T09:34:59.390Z,15.90
2017-09-26T09:37:27.705Z,17.40
2017-09-26T09:39:55.443Z,18.75
2017-09-26T09:42:23.361Z,16.20
2017-09-26T09:44:50.918Z,13.62
2017-09-26T09:47:18.461Z,14.60
2017-09-26T09:49:46.465Z,12.93
2017-09-26T09:52:14.013Z,13.07
2017-09-26T09:54:41.566Z,12.27
2017-09-26T09:57:10.462Z,11.50
2017-09-26T09:59:38.016Z,11.70
2017-09-26T10:02:05.961Z,10.70
2017-09-26T10:04:34.382Z,11.50
2017-09-26T10:07:01.930Z,11.65
2017-09-26T10:09:29.865Z,10.90
2017-09-26T10:11:57.701Z,10.63
2017-09-26T10:14:26.011Z,10.10
2017-09-26T10:16:54.132Z,10.50
2017-09-26T10:19:21.674Z,10.55
2017-09-26T10:21:49.223Z,10.63
2017-09-26T10:24:16.873Z,9.50
2017-09-26T10:26:49.642Z,11.68
2017-09-26T10:29:17.236Z,8.88
2017-09-26T10:31:44.788Z,10.60
2017-09-26T10:34:12.383Z,10.38
2017-09-26T10:36:39.930Z,9.57
2017-09-26T10:39:08.091Z,10.25
2017-09-26T10:41:35.638Z,9.20
2017-09-26T10:44:03.176Z,10.67
2017-09-26T10:46:30.769Z,9.55
2017-09-26T10:48:58.321Z,10.53
2017-09-26T10:51:26.197Z,9.20
2017-09-26T10:53:53.739Z,9.30
2017-09-26T10:56:21.298Z,8.63
2017-09-26T10:58:49.289Z,9.40
2017-09-26T11:01:16.833Z,9.13
2017-09-26T11:03:44.380Z,10.07
2017-09-26T11:06:11.965Z,9.17
2017-09-26T11:08:39.551Z,9.47
2017-09-26T11:11:07.089Z,9.37
2017-09-26T11:13:37.709Z,9.23
2017-09-26T11:16:05.259Z,9.53
2017-09-26T11:18:32.806Z,9.33
2017-09-26T11:21:01.013Z,9.83
2017-09-26T11:23:28.565Z,9.17
2017-09-26T11:25:56.112Z,9.20
2017-09-26T11:28:25.023Z,9.57
2017-09-26T11:30:52.597Z,9.97
2017-09-26T11:33:20.136Z,9.43
2017-09-26T11:35:47.717Z,9.50
2017-09-26T11:38:15.285Z,9.53
2017-09-26T11:40:42.869Z,9.47
2017-09-26T11:43:11.173Z,9.60
2017-09-26T11:45:39.093Z,9.33
2017-09-26T11:48:06.633Z,8.87
2017-09-26T11:50:34.769Z,9.70
2017-09-26T11:53:02.668Z,9.90
2017-09-26T11:55:31.121Z,8.80
2017-09-26T11:57:58.663Z,8.50
2017-09-26T12:00:27.563Z,8.10
2017-09-26T12:02:55.504Z,8.73
2017-09-26T12:05:23.806Z,8.87
2017-09-26T12:07:51.349Z,8.60
2017-09-26T12:10:19.690Z,7.83
2017-09-26T12:12:52.881Z,9.00
2017-09-26T12:15:20.476Z,7.73
2017-09-26T12:17:48.786Z,7.77
2017-09-26T12:20:16.320Z,6.83
2017-09-26T12:22:44.815Z,7.80
2017-09-26T12:25:12.605Z,7.23
2017-09-26T12:27:40.697Z,9.13
2017-09-26T12:30:08.249Z,8.13
2017-09-26T12:32:35.786Z,7.50
2017-09-26T12:35:06.248Z,7.33
2017-09-26T12:37:33.788Z,8.83
2017-09-26T12:40:01.344Z,9.33
2017-09-26T12:42:32.692Z,8.10
2017-09-26T12:45:00.229Z,7.90
2017-09-26T12:47:28.182Z,8.10
2017-09-26T12:49:56.510Z,8.63
2017-09-26T12:52:24.064Z,8.47
2017-09-26T12:54:51.654Z,9.10
2017-09-26T12:57:19.612Z,9.33
2017-09-26T12:59:47.147Z,10.67
2017-09-26T13:02:14.692Z,9.10
2017-09-26T13:04:42.533Z,8.70
2017-09-26T13:07:10.840Z,9.00
2017-09-26T13:09:39.705Z,9.43
2017-09-26T13:12:08.012Z,9.20
2017-09-26T13:14:35.565Z,9.50
2017-09-26T13:17:03.464Z,9.43
2017-09-26T13:19:31.002Z,9.83
2017-09-26T13:21:58.552Z,9.10
2017-09-26T13:24:26.185Z,8.90
2017-09-26T13:26:59.666Z,8.60
2017-09-26T13:29:27.815Z,10.37
2017-09-26T13:31:55.367Z,9.70
2017-09-26T13:34:22.905Z,9.43
2017-09-26T13:36:50.552Z,8.73
2017-09-26T13:39:18.856Z,8.97
2017-09-26T13:41:46.853Z,10.20
2017-09-26T13:44:14.389Z,9.20
2017-09-26T13:46:41.921Z,8.80
2017-09-26T13:49:10.266Z,9.63
2017-09-26T13:51:37.812Z,8.40
2017-09-26T13:54:05.402Z,7.43
2017-09-26T13:56:32.941Z,7.63
2017-09-26T13:59:00.869Z,8.23
2017-09-26T14:01:28.414Z,9.60
2017-09-26T14:03:56.027Z,6.80
2017-09-26T14:06:23.624Z,9.00
2017-09-26T14:08:51.225Z,7.32
2017-09-26T14:11:18.861Z,6.28
2017-09-26T14:13:46.500Z,7.18
2017-09-26T14:16:14.808Z,8.35
2017-09-26T14:18:42.541Z,6.80
2017-09-26T14:21:10.888Z,6.95
2017-09-26T14:23:38.442Z,7.47
2017-09-26T14:26:06.214Z,7.15
2017-09-26T14:28:33.751Z,7.93
2017-09-26T14:31:01.333Z,7.60
2017-09-26T14:33:28.890Z,8.23
2017-09-26T14:35:56.637Z,8.50
2017-09-26T14:38:24.174Z,9.40
2017-09-26T14:40:51.917Z,9.07
2017-09-26T14:43:20.242Z,9.80
2017-09-26T14:45:48.216Z,9.90
2017-09-26T14:48:15.766Z,9.73
2017-09-26T14:50:43.314Z,10.65
2017-09-26T14:53:11.009Z,9.10
2017-09-26T14:55:38.558Z,10.07
2017-09-26T14:58:08.590Z,9.82
2017-09-26T15:00:36.136Z,7.55
2017-09-26T15:03:06.675Z,7.45
2017-09-26T15:05:34.218Z,7.18
2017-09-26T15:08:01.800Z,7.62
2017-09-26T15:10:31.131Z,8.85
2017-09-26T15:12:59.437Z,9.10
2017-09-26T15:15:27.017Z,9.32
2017-09-26T15:17:54.893Z,9.75
2017-09-26T15:20:22.436Z,10.15
2017-09-26T15:22:49.969Z,11.88
2017-09-26T15:25:19.937Z,8.95
2017-09-26T15:27:47.648Z,10.00
2017-09-26T15:30:15.946Z,7.87
2017-09-26T15:32:43.624Z,9.30
2017-09-26T15:35:11.159Z,7.90
2017-09-26T15:37:38.741Z,8.25
2017-09-26T15:40:06.278Z,7.30
2017-09-26T15:42:33.877Z,7.05
2017-09-26T15:45:01.423Z,8.02
2017-09-26T15:47:28.959Z,7.53
2017-09-26T15:49:56.596Z,7.07
2017-09-26T15:52:24.144Z,6.57
2017-09-26T15:54:51.732Z,8.07
2017-09-26T15:57:20.038Z,9.70
2017-09-26T15:59:47.586Z,6.78
2017-09-26T16:02:15.750Z,7.50
2017-09-26T16:04:43.353Z,7.60
2017-09-26T16:07:11.074Z,6.00
2017-09-26T16:09:38.617Z,5.47
2017-09-26T16:12:07.076Z,6.47
2017-09-26T16:14:34.611Z,6.10
2017-09-26T16:17:02.149Z,7.18
2017-09-26T16:19:29.764Z,6.43
2017-09-26T16:21:57.302Z,7.75
2017-09-26T16:24:26.160Z,7.15
2017-09-26T16:26:53.700Z,6.72
2017-09-26T16:29:22.485Z,6.97
2017-09-26T16:31:50.835Z,6.70
2017-09-26T16:34:18.412Z,7.00
2017-09-26T16:36:47.036Z,6.60
2017-09-26T16:39:14.577Z,6.28
2017-09-26T16:41:42.155Z,6.53
2017-09-26T16:44:09.930Z,7.07
2017-09-26T16:46:37.564Z,6.45
2017-09-26T16:49:05.396Z,6.80
2017-09-26T16:51:33.157Z,6.30
2017-09-26T16:54:00.761Z,6.32
2017-09-26T16:56:28.309Z,7.15
2017-09-26T16:58:56.657Z,5.30
2017-09-26T17:01:24.809Z,5.97
2017-09-26T17:03:52.561Z,6.55
2017-09-26T17:06:20.306Z,7.55
2017-09-26T17:08:47.980Z,7.80
2017-09-26T17:11:15.868Z,7.57
2017-09-26T17:13:43.502Z,6.93
2017-09-26T17:16:11.043Z,8.43
2017-09-26T17:18:41.214Z,7.57
2017-09-26T17:21:08.748Z,5.90
2017-09-26T17:23:37.050Z,7.30
2017-09-26T17:26:04.624Z,8.57
2017-09-26T17:28:32.420Z,10.50
2017-09-26T17:31:00.757Z,8.15
2017-09-26T17:33:28.300Z,10.07
2017-09-26T17:35:55.930Z,7.93
2017-09-26T17:38:23.473Z,10.65
2017-09-26T17:40:52.193Z,8.30
2017-09-26T17:43:19.724Z,8.02
2017-09-26T17:45:48.029Z,6.85
2017-09-26T17:48:15.726Z,6.43
2017-09-26T17:50:43.253Z,7.00
2017-09-26T17:53:10.796Z,6.40
2017-09-26T17:55:38.369Z,7.12
2017-09-26T17:58:06.241Z,7.57
2017-09-26T18:00:33.786Z,6.95
2017-09-26T18:03:01.333Z,7.28
2017-09-26T18:05:28.920Z,7.57
2017-09-26T18:07:56.513Z,7.37
2017-09-26T18:10:24.040Z,6.60
2017-09-26T18:12:52.045Z,7.62
2017-09-26T18:15:19.589Z,7.35
2017-09-26T18:17:47.145Z,6.60
2017-09-26T18:20:14.784Z,7.12
2017-09-26T18:22:42.353Z,7.68
2017-09-26T18:25:09.884Z,6.97
2017-09-26T18:27:38.729Z,6.90
2017-09-26T18:30:06.265Z,6.00
2017-09-26T18:32:33.846Z,6.90
2017-09-26T18:35:01.378Z,7.03
2017-09-26T18:37:28.957Z,7.30
2017-09-26T18:39:56.497Z,6.45
2017-09-26T18:42:24.084Z,6.75
2017-09-26T18:44:51.615Z,6.82
2017-09-26T18:47:19.381Z,8.88
2017-09-26T18:49:46.923Z,6.22
2017-09-26T18:52:15.434Z,7.90
2017-09-26T18:54:43.040Z,7.12
2017-09-26T18:57:10.576Z,6.60
2017-09-26T18:59:38.177Z,6.60
2017-09-26T19:02:06.484Z,7.32
2017-09-26T19:04:34.467Z,6.12
2017-09-26T19:07:02.002Z,6.28
2017-09-26T19:09:32.378Z,6.30
2017-09-26T19:12:00.046Z,5.70
2017-09-26T19:14:27.573Z,7.25
2017-09-26T19:16:55.155Z,7.18
2017-09-26T19:19:22.725Z,6.65
2017-09-26T19:21:50.272Z,9.30
2017-09-26T19:24:18.446Z,8.20
2017-09-26T19:26:46.078Z,6.35
2017-09-26T19:29:13.613Z,7.10
2017-09-26T19:31:41.282Z,7.53
2017-09-26T19:34:09.629Z,8.15
2017-09-26T19:36:37.165Z,8.30
2017-09-26T19:39:06.089Z,7.72
2017-09-26T19:41:33.680Z,8.38
2017-09-26T19:44:01.234Z,8.60
2017-09-26T19:46:29.540Z,9.23
2017-09-26T19:48:57.114Z,9.48
2017-09-26T19:51:24.680Z,9.82
2017-09-26T19:53:52.253Z,9.20
2017-09-26T19:56:19.785Z,12.45
2017-09-26T19:58:48.678Z,9.68
2017-09-26T20:01:16.207Z,8.95
2017-09-26T20:03:43.795Z,8.77
2017-09-26T20:06:11.332Z,9.63
2017-09-26T20:08:38.906Z,9.38
2017-09-26T20:11:06.436Z,8.00
2017-09-26T20:13:35.685Z,9.68
2017-09-26T20:16:03.212Z,7.85
2017-09-26T20:18:30.745Z,8.30
2017-09-26T20:20:59.089Z,9.68
2017-09-26T20:23:26.683Z,9.02
2017-09-26T20:25:54.261Z,10.20
2017-09-26T20:28:26.721Z,12.02
2017-09-26T20:30:55.026Z,9.32
2017-09-26T20:33:22.665Z,10.00
2017-09-26T20:35:50.964Z,9.95
2017-09-26T20:38:18.540Z,11.45
2017-09-26T20:40:46.529Z,9.48
2017-09-26T20:43:14.073Z,11.23
2017-09-26T20:45:41.612Z,11.40
2017-09-26T20:48:09.261Z,10.48
2017-09-26T20:50:37.564Z,10.57
2017-09-26T20:53:05.136Z,9.80
2017-09-26T20:55:32.668Z,8.07
2017-09-26T20:58:00.240Z,8.15
2017-09-26T21:00:27.821Z,9.20
2017-09-26T21:02:55.367Z,7.95
2017-09-26T21:05:23.357Z,8.45
2017-09-26T21:07:50.889Z,10.32
2017-09-26T21:10:18.433Z,6.95
2017-09-26T21:12:46.009Z,7.90
2017-09-26T21:15:16.053Z,6.68
2017-09-26T21:17:43.585Z,6.87
2017-09-26T21:20:11.297Z,6.72
2017-09-26T21:22:38.851Z,8.35
2017-09-26T21:25:06.798Z,7.60
2017-09-26T21:27:34.333Z,7.68
2017-09-26T21:30:03.506Z,7.28
2017-09-26T21:32:31.848Z,7.00
2017-09-26T21:34:59.418Z,7.37
2017-09-26T21:37:26.962Z,9.25
2017-09-26T21:39:54.532Z,10.10
2017-09-26T21:42:22.396Z,10.52
2017-09-26T21:44:49.937Z,10.40
2017-09-26T21:47:17.476Z,10.82
2017-09-26T21:49:45.432Z,9.65
2017-09-26T21:52:13.735Z,10.40
2017-09-26T21:54:41.280Z,12.13
2017-09-26T21:57:08.857Z,10.70
2017-09-26T21:59:36.396Z,11.85
2017-09-26T22:02:03.996Z,11.45
2017-09-26T22:04:31.529Z,10.02
2017-09-26T22:06:59.065Z,10.70
2017-09-26T22:09:27.409Z,8.10
2017-09-26T22:11:55.362Z,8.30
2017-09-26T22:14:22.897Z,7.65
2017-09-26T22:16:50.424Z,7.68
2017-09-26T22:19:18.764Z,8.15
2017-09-26T22:21:48.796Z,7.05
2017-09-26T22:24:16.337Z,8.15
2017-09-26T22:26:44.082Z,8.30
2017-09-26T22:29:11.619Z,9.00
2017-09-26T22:31:39.919Z,7.80
2017-09-26T22:34:07.544Z,7.62
2017-09-26T22:36:36.292Z,8.07
2017-09-26T22:39:03.913Z,8.60
2017-09-26T22:41:31.450Z,9.10
2017-09-26T22:43:59.805Z,9.18
2017-09-26T22:46:27.350Z,9.00
2017-09-26T22:48:54.981Z,8.85
2017-09-26T22:51:22.525Z,10.20
2017-09-26T22:53:50.261Z,10.20
2017-09-26T22:56:17.805Z,9.38
2017-09-26T22:58:45.877Z,10.15
2017-09-26T23:01:13.413Z,11.07
2017-09-26T23:03:40.961Z,15.07
2017-09-26T23:06:08.562Z,11.12
2017-09-26T23:08:41.439Z,9.38
2017-09-26T23:11:08.989Z,9.82
2017-09-26T23:13:36.784Z,10.40
2017-09-26T23:16:04.451Z,11.32
2017-09-26T23:18:32.770Z,9.90
2017-09-26T23:21:00.353Z,10.38
2017-09-26T23:23:27.909Z,10.75
2017-09-26T23:25:55.897Z,10.02
2017-09-26T23:28:23.446Z,11.55
2017-09-26T23:30:51.028Z,11.77
2017-09-26T23:33:18.587Z,17.77
2017-09-26T23:35:46.965Z,17.55
2017-09-26T23:38:14.521Z,18.23
2017-09-26T23:40:42.265Z,16.48
2017-09-26T23:43:09.822Z,16.58
2017-09-26T23:45:38.525Z,17.08
2017-09-26T23:48:06.082Z,19.20
2017-09-26T23:50:33.642Z,14.60
2017-09-26T23:53:01.231Z,17.60
2017-09-26T23:55:29.585Z,16.45
2017-09-26T23:57:57.135Z,20.88
